Flight Track Log - Related Links

Times and Time Zones

All times are in EDT time to prevent confusion due to time zone crossing. See the UAL3741 flight status page for this flight to view local times or setup timezone preferences in your user account.

Time Position Orientation Groundspeed Altitude Reporting Facility
EDT Latitude Longitude Course Direction KTS MPH feet Rate Location/Type
Fri 08:20:12 AM 29.5464 -98.4922 North 145 167 1,600  Level Houston Center
Fri 08:21:17 AM 29.5700 -98.5356 302° West 154 177 3,900 1,857 Climbing Houston Center
Fri 08:22:18 AM 29.6192 -98.5339 North 198 228 5,500 1,951 Climbing Houston Center
Fri 08:23:20 AM 29.6825 -98.5156 14° North 231 266 7,900 2,293 Climbing Houston Center
Fri 08:24:21 AM 29.7558 -98.4947 14° North 250 288 10,200 1,610 Climbing Houston Center
Fri 08:25:00 AM 30.2359 -98.3568 North  Level FlightAware
Fri 08:25:23 AM 29.8392 -98.4700 14° North 312 359 11,200  Level Houston Center
Fri 08:26:24 AM 29.9356 -98.4442 13° North 334 384 13,700 2,066 Climbing Houston Center
Fri 08:27:25 AM 30.0217 -98.4181 15° North 344 396 15,400 1,805 Climbing Houston Center
Fri 08:28:27 AM 30.1233 -98.3831 17° North 352 405 17,400 1,659 Climbing Houston Center
Fri 08:29:28 AM 30.2200 -98.3406 21° North 369 425 18,800 1,366 Climbing Houston Center
Fri 08:30:30 AM 30.3133 -98.3011 20° North 375 432 20,200 1,317 Climbing Houston Center
Fri 08:31:31 AM 30.4203 -98.2567 20° North 400 460 21,500 1,415 Climbing Houston Center
Fri 08:32:33 AM 30.5267 -98.2119 20° North 402 463 23,100 1,366 Climbing Houston Center
Fri 08:33:34 AM 30.6350 -98.1661 20° North 406 467 24,300 1,131 Climbing Houston Center
Fri 08:34:35 AM 30.7458 -98.1197 20° North 415 478 25,400 1,171 Climbing Houston Center
Fri 08:35:37 AM 30.8783 -98.0625 20° North 426 490 26,700 1,073 Climbing Houston Center
Fri 08:36:38 AM 30.9939 -98.0122 20° North 434 499 27,600 857 Climbing Houston Center
Fri 08:37:15 AM 31.0533 -97.9906 17° North 432 497 28,100 928 Climbing Fort Center
Fri 08:38:15 AM 31.1703 -97.9378 21° North 432 497 29,100 950 Climbing Fort Center
Fri 08:39:15 AM 31.2853 -97.8897 20° North 432 497 30,000 900 Climbing Fort Center
Fri 08:40:15 AM 31.4131 -97.8344 20° North 432 497 30,900 950 Climbing Fort Center
Fri 08:41:15 AM 31.5281 -97.7839 21° North 432 497 31,900 950 Climbing Fort Center
Fri 08:42:15 AM 31.6450 -97.7306 21° North 441 507 32,800 900 Climbing Fort Center
Fri 08:43:15 AM 31.7600 -97.6822 20° North 441 507 33,700 900 Climbing Fort Center
Fri 08:44:15 AM 31.8750 -97.6286 22° Northeast 441 507 34,600 650 Climbing Fort Center
Fri 08:45:15 AM 31.9753 -97.5872 19° North 441 507 35,000 200 Climbing Fort Center
Fri 08:46:15 AM 32.1025 -97.5261 22° Northeast 439 505 35,000  Level Fort Center
Fri 08:47:15 AM 32.2050 -97.4503 32° Northeast 457 526 35,000  Level Fort Center
Fri 08:48:15 AM 32.3303 -97.3594 31° Northeast 476 548 35,000  Level Fort Center
Fri 08:49:15 AM 32.4325 -97.2831 32° Northeast 476 548 35,000  Level Fort Center
Fri 08:50:15 AM 32.5556 -97.1892 33° Northeast 476 548 35,000  Level Fort Center
Fri 08:51:15 AM 32.6556 -97.1147 32° Northeast 476 548 35,000  Level Fort Center
Fri 08:52:15 AM 32.7764 -97.0256 32° Northeast 476 548 35,000  Level Fort Center
Fri 08:53:15 AM 32.8742 -96.9508 33° Northeast 471 542 35,000  Level Fort Center
Fri 08:54:15 AM 32.9950 -96.8661 30° Northeast 460 529 35,000  Level Fort Center
Fri 08:55:15 AM 33.0906 -96.7911 33° Northeast 455 524 35,000  Level Fort Center
Fri 08:56:15 AM 33.2114 -96.6983 33° Northeast 455 524 35,000  Level Fort Center
Fri 08:57:15 AM 33.3089 -96.6231 33° Northeast 455 524 35,000  Level Fort Center
Fri 08:58:15 AM 33.4189 -96.5400 32° Northeast 460 529 35,000  Level Fort Center
Fri 08:59:15 AM 33.5394 -96.4464 33° Northeast 460 529 35,000  Level Fort Center
Fri 09:00:15 AM 33.6389 -96.3706 32° Northeast 466 536 35,000  Level Fort Center
Fri 09:01:15 AM 33.7633 -96.2742 33° Northeast 471 542 35,000  Level Fort Center
Fri 09:02:15 AM 33.8711 -96.1878 34° Northeast 471 542 35,000  Level Fort Center
Fri 09:03:15 AM 33.9808 -96.1036 32° Northeast 471 542 35,000  Level Fort Center
Fri 09:04:15 AM 34.0906 -96.0192 33° Northeast 476 548 35,000  Level Fort Center
Fri 09:05:15 AM 34.2022 -95.9294 34° Northeast 476 548 35,000  Level Fort Center
Fri 09:06:15 AM 34.3139 -95.8419 33° Northeast 476 548 35,000  Level Fort Center
Fri 09:07:15 AM 34.4253 -95.7544 33° Northeast 476 548 35,000  Level Fort Center
Fri 09:08:15 AM 34.5367 -95.6639 34° Northeast 481 554 35,000  Level Fort Center
Fri 09:09:15 AM 34.6503 -95.5733 33° Northeast 481 554 35,000  Level Fort Center
Fri 09:10:15 AM 34.7678 -95.4850 32° Northeast 481 554 35,000  Level Fort Center
Fri 09:11:15 AM 34.8789 -95.3939 34° Northeast 481 554 35,000  Level Fort Center
Fri 09:12:15 AM 34.9922 -95.3050 33° Northeast 476 548 35,000  Level Fort Center
Fri 09:13:44 AM 35.1456 -95.1819 33° Northeast 512 589 35,000  Level Memphis Center
Fri 09:14:44 AM 35.2575 -95.0917 33° Northeast 498 573 35,000  Level Memphis Center
Fri 09:15:44 AM 35.3717 -94.9989 34° Northeast 493 567 35,000  Level Memphis Center
Fri 09:16:44 AM 35.4833 -94.9056 34° Northeast 493 567 35,000  Level Memphis Center
Fri 09:17:44 AM 35.5972 -94.8150 33° Northeast 493 567 35,000  Level Memphis Center
Fri 09:18:44 AM 35.7111 -94.7186 34° Northeast 493 567 35,000  Level Memphis Center
Fri 09:19:44 AM 35.8250 -94.6275 33° Northeast 493 567 35,000  Level Memphis Center
Fri 09:20:44 AM 35.9386 -94.5308 35° Northeast 487 560 35,000  Level Memphis Center
Fri 09:21:44 AM 36.0503 -94.4389 34° Northeast 487 560 35,000  Level Memphis Center
Fri 09:23:25 AM 36.2542 -94.2700 34° Northeast 491 565 35,000  Level Kansas Center
Fri 09:24:26 AM 36.3672 -94.1772 33° Northeast 489 563 35,000  Level Kansas Center
Fri 09:25:28 AM 36.4806 -94.0819 34° Northeast 490 564 35,000  Level Kansas Center
Fri 09:26:29 AM 36.5931 -93.9869 34° Northeast 491 565 35,000  Level Kansas Center
Fri 09:27:31 AM 36.7078 -93.8906 34° Northeast 493 567 35,000  Level Kansas Center
Fri 09:28:32 AM 36.8208 -93.7950 34° Northeast 494 568 35,000  Level Kansas Center
Fri 09:29:34 AM 36.9361 -93.6956 35° Northeast 495 570 35,000  Level Kansas Center
Fri 09:30:36 AM 37.0525 -93.5978 34° Northeast 499 574 35,000  Level Kansas Center
Fri 09:31:37 AM 37.1678 -93.4992 34° Northeast 500 575 35,000  Level Kansas Center
Fri 09:32:39 AM 37.3072 -93.3811 34° Northeast 501 577 35,000  Level Kansas Center
Fri 09:33:40 AM 37.4208 -93.2789 36° Northeast 499 574 35,000  Level Kansas Center
Fri 09:34:42 AM 37.5319 -93.1747 37° Northeast 498 573 35,000  Level Kansas Center
Fri 09:35:43 AM 37.6453 -93.0697 36° Northeast 500 575 35,000  Level Kansas Center
Fri 09:36:45 AM 37.7581 -92.9639 37° Northeast 502 578 35,000  Level Kansas Center
Fri 09:37:47 AM 37.8711 -92.8572 37° Northeast 502 578 35,000  Level Kansas Center
Fri 09:38:48 AM 37.9850 -92.7497 37° Northeast 503 579 35,000  Level Kansas Center
Fri 09:39:50 AM 38.0894 -92.6525 36° Northeast 502 578 35,000  Level Kansas Center
Fri 09:40:51 AM 38.2128 -92.5347 37° Northeast 500 575 35,000  Level Kansas Center
Fri 09:41:53 AM 38.3272 -92.4267 37° Northeast 502 578 35,000  Level Kansas Center
Fri 09:42:54 AM 38.4392 -92.3206 37° Northeast 498 573 35,000  Level Kansas Center
Fri 09:43:56 AM 38.5503 -92.2128 37° Northeast 498 573 35,000  Level Kansas Center
Fri 09:44:57 AM 38.6619 -92.1047 37° Northeast 499 574 35,000  Level Kansas Center
Fri 09:45:59 AM 38.7742 -91.9972 37° Northeast 500 575 35,000  Level Kansas Center
Fri 09:47:00 AM 38.9092 -91.8669 37° Northeast 502 578 35,000  Level Kansas Center
Fri 09:48:02 AM 39.0192 -91.7597 37° Northeast 496 571 35,000  Level Kansas Center
Fri 09:49:03 AM 39.1094 -91.6728 37° Northeast 491 565 35,000  Level Kansas Center
Fri 09:50:05 AM 39.2392 -91.5458 37° Northeast 487 560 35,000  Level Kansas Center
Fri 09:51:07 AM 39.3464 -91.4414 37° Northeast 484 557 35,000  Level Kansas Center
Fri 09:52:08 AM 39.4525 -91.3369 37° Northeast 482 555 35,000 -195 Level Kansas Center
Fri 09:53:10 AM 39.5558 -91.2317 38° Northeast 477 549 34,600 -726 Descending Kansas Center
Fri 09:54:12 AM 39.6589 -91.1289 38° Northeast 471 542 33,500 -780 Descending Kansas Center
Fri 09:55:13 AM 39.7542 -91.0333 38° Northeast 459 528 33,000 -244 Descending Kansas Center
Fri 09:56:15 AM 39.8756 -90.9144 37° Northeast 460 529 33,000  Level Kansas Center
Fri 09:57:17 AM 39.9783 -90.8119 37° Northeast 464 534 33,000  Level Kansas Center
Fri 09:58:18 AM 40.0781 -90.7050 39° Northeast 464 534 33,000  Level Kansas Center
Fri 09:58:53 AM 40.1394 -90.6469 36° Northeast 464 534 33,000  Level Chicago Center
Fri 09:59:55 AM 40.2422 -90.5411 38° Northeast 461 531 33,000  Level Chicago Center
Fri 10:00:57 AM 40.3442 -90.4375 38° Northeast 461 531 33,000 -146 Level Chicago Center
Fri 10:01:58 AM 40.4456 -90.3331 38° Northeast 463 533 32,700 -683 Descending Chicago Center
Fri 10:03:00 AM 40.5494 -90.2261 38° Northeast 480 552 31,600 -1,306 Descending Chicago Center
Fri 10:04:02 AM 40.6794 -90.0931 38° Northeast 493 567 30,000 -1,452 Descending Chicago Center
Fri 10:05:04 AM 40.7861 -89.9828 38° Northeast 490 564 28,600 -1,355 Descending Chicago Center
Fri 10:06:06 AM 40.8906 -89.8739 38° Northeast 482 555 27,200 -1,355 Descending Chicago Center
Fri 10:07:08 AM 40.9914 -89.7672 39° Northeast 468 539 25,800 -1,452 Descending Chicago Center
Fri 10:08:10 AM 41.0683 -89.6142 56° Northeast 447 514 24,200 -1,500 Descending Chicago Center
Fri 10:09:12 AM 41.1353 -89.4789 57° Northeast 440 506 22,700 -1,839 Descending Chicago Center
Fri 10:10:14 AM 41.2017 -89.3481 56° Northeast 429 494 20,400 -2,129 Descending Chicago Center
Fri 10:11:16 AM 41.2633 -89.2225 57° Northeast 412 474 18,300 -2,081 Descending Chicago Center
Fri 10:12:18 AM 41.3258 -89.0928 57° Northeast 401 461 16,100 -2,081 Descending Chicago Center
Fri 10:13:20 AM 41.3853 -88.9706 57° Northeast 396 456 14,000 -1,984 Descending Chicago Center
Fri 10:14:22 AM 41.4417 -88.8536 57° Northeast 380 437 12,000 -1,452 Descending Chicago Center
Fri 10:15:24 AM 41.4972 -88.7394 57° Northeast 370 426 11,000 -484 Descending Chicago Center
Fri 10:16:26 AM 41.5533 -88.6031 61° Northeast 348 400 11,000 -145 Level Chicago Center
Fri 10:17:28 AM 41.5922 -88.5064 62° Northeast 300 345 10,700 -823 Descending Chicago Center
Fri 10:18:30 AM 41.6314 -88.4267 57° Northeast 262 302 9,300 -1,306 Descending Chicago Center
Fri 10:19:32 AM 41.6739 -88.3536 52° Northeast 252 290 8,000 -629 Descending Chicago Center
Fri 10:20:34 AM 41.7175 -88.2806 51° Northeast 251 289 8,000  Level Chicago Center
Fri 10:21:36 AM 41.7608 -88.2067 52° Northeast 253 291 8,000  Level Chicago Center
Fri 10:22:38 AM 41.8164 -88.1503 37° Northeast 237 273 8,000 -484 Level Chicago Center
Fri 10:23:40 AM 41.8747 -88.1839 337° Northwest 230 265 7,000 -484 Descending Chicago Center
Fri 10:24:42 AM 41.8917 -88.2539 288° West 215 247 7,000  Level Chicago Center
Fri 10:25:44 AM 41.8958 -88.3331 274° West 213 245 7,000  Level Chicago Center
Fri 10:26:46 AM 41.9008 -88.4097 275° West 209 241 7,000  Level Chicago Center
Fri 10:27:48 AM 41.9042 -88.4975 273° West 220 253 7,000  Level Chicago Center
Fri 10:28:50 AM 41.9583 -88.4947 North 213 245 7,000  Level Chicago Center
Fri 10:29:52 AM 41.9714 -88.4294 75° East 183 211 7,000  Level Chicago Center
Fri 10:30:54 AM 41.9667 -88.3708 96° East 162 186 7,000 -242 Level Chicago Center
Fri 10:31:56 AM 41.9653 -88.3092 92° East 166 191 6,500 -774 Descending Chicago Center
Fri 10:32:58 AM 41.9692 -88.2472 85° East 166 191 5,400 -968 Descending Chicago Center
Fri 10:34:00 AM 41.9667 -88.1869 93° East 163 188 4,500 -968 Descending Chicago Center
Fri 10:35:02 AM 41.9686 -88.1117 88° East 166 191 3,400 -1,065 Descending Chicago Center

Login

Don't have an account? Register now (free) for customized features, flight alerts, and more!